createdAt,value
2022-10-09T00:01:21.398Z,102538.50
2022-10-09T00:03:54.210Z,102525.97
2022-10-09T00:06:23.895Z,102529.59
2022-10-09T00:08:52.033Z,102534.06
2022-10-09T00:11:22.561Z,102533.19
2022-10-09T00:13:52.504Z,102531.44
2022-10-09T00:16:22.743Z,102534.09
2022-10-09T00:18:51.160Z,102538.59
2022-10-09T00:21:21.977Z,102535.00
2022-10-09T00:23:51.171Z,102533.28
2022-10-09T00:26:19.289Z,102535.09
2022-10-09T00:28:47.595Z,102529.72
2022-10-09T00:31:17.585Z,102527.97
2022-10-09T00:33:48.611Z,102537.84
2022-10-09T00:36:18.727Z,102532.47
2022-10-09T00:38:46.818Z,102527.16
2022-10-09T00:41:17.386Z,102529.84
2022-10-09T00:43:48.240Z,102530.69
2022-10-09T00:46:33.643Z,102533.44
2022-10-09T00:49:13.947Z,102536.13
2022-10-09T00:51:43.505Z,102530.84
2022-10-09T00:54:15.286Z,102531.72
2022-10-09T00:56:44.006Z,102542.44
2022-10-09T00:59:12.905Z,102540.66
2022-10-09T01:01:43.282Z,102530.84
2022-10-09T01:04:14.166Z,102535.38
2022-10-09T01:06:57.273Z,102536.22
2022-10-09T01:09:31.347Z,102526.47
2022-10-09T01:12:05.965Z,102530.94
2022-10-09T01:14:37.640Z,102528.28
2022-10-09T01:17:18.801Z,102538.16
2022-10-09T01:20:02.267Z,102526.56
2022-10-09T01:22:40.198Z,102524.81
2022-10-09T01:25:09.464Z,102523.97
2022-10-09T01:27:39.614Z,102523.97
2022-10-09T01:30:10.453Z,102518.59
2022-10-09T01:32:42.490Z,102521.28
2022-10-09T01:35:12.668Z,102524.81
2022-10-09T01:37:43.648Z,102517.72
2022-10-09T01:40:13.756Z,102512.38
2022-10-09T01:42:43.195Z,102506.19
2022-10-09T01:45:11.978Z,102509.72
2022-10-09T01:47:42.134Z,102510.66
2022-10-09T01:50:17.454Z,102508.00
2022-10-09T01:52:51.404Z,102506.25
2022-10-09T01:55:37.371Z,102504.47
2022-10-09T01:58:14.224Z,102500.03
2022-10-09T02:00:46.925Z,102496.44
2022-10-09T02:03:17.414Z,102498.25
2022-10-09T02:05:48.440Z,102500.94
2022-10-09T02:08:20.022Z,102499.13
2022-10-09T02:10:50.511Z,102494.69
2022-10-09T02:13:20.027Z,102491.16
2022-10-09T02:15:51.697Z,102495.66
2022-10-09T02:18:26.925Z,102490.31
2022-10-09T02:21:01.575Z,102488.53
2022-10-09T02:23:32.879Z,102484.06
2022-10-09T02:26:00.917Z,102486.78
2022-10-09T02:28:30.584Z,102485.91
2022-10-09T02:31:04.924Z,102484.09
2022-10-09T02:33:34.582Z,102479.69
2022-10-09T02:36:02.958Z,102494.00
2022-10-09T02:38:31.041Z,102484.28
2022-10-09T02:41:00.015Z,102486.00
2022-10-09T02:43:28.166Z,102485.13
2022-10-09T02:45:57.455Z,102477.09
2022-10-09T02:48:25.341Z,102471.75
2022-10-09T02:50:55.609Z,102473.53
2022-10-09T02:53:23.717Z,102473.53
2022-10-09T02:55:51.616Z,102482.44
2022-10-09T02:58:19.789Z,102477.94
2022-10-09T03:00:50.192Z,102476.94
2022-10-09T03:03:20.292Z,102481.41
2022-10-09T03:05:48.693Z,102478.72
2022-10-09T03:08:16.685Z,102478.69
2022-10-09T03:10:44.605Z,102475.94
2022-10-09T03:13:12.514Z,102471.47
2022-10-09T03:15:40.494Z,102468.84
2022-10-09T03:18:08.579Z,102463.53
2022-10-09T03:20:38.703Z,102471.56
2022-10-09T03:23:06.667Z,102463.59
2022-10-09T03:25:34.852Z,102456.50
2022-10-09T03:28:02.897Z,102457.44
2022-10-09T03:30:31.198Z,102462.81
2022-10-09T03:32:59.147Z,102457.47
2022-10-09T03:35:27.057Z,102456.63
2022-10-09T03:37:56.307Z,102461.97
2022-10-09T03:40:24.240Z,102462.91
2022-10-09T03:42:52.219Z,102454.88
2022-10-09T03:45:20.159Z,102453.13
2022-10-09T03:47:50.596Z,102458.50
2022-10-09T03:50:18.710Z,102466.53
2022-10-09T03:52:46.900Z,102460.28
2022-10-09T03:55:16.421Z,102466.53
2022-10-09T03:57:44.298Z,102469.25
2022-10-09T04:00:13.645Z,102475.47
2022-10-09T04:02:41.567Z,102480.81
2022-10-09T04:05:10.231Z,102477.28
2022-10-09T04:07:40.267Z,102478.22
2022-10-09T04:10:09.018Z,102473.81
2022-10-09T04:12:38.348Z,102472.91
2022-10-09T04:15:07.176Z,102475.56
2022-10-09T04:17:35.080Z,102472.91
2022-10-09T04:20:03.158Z,102472.91
2022-10-09T04:22:31.145Z,102473.84
2022-10-09T04:24:59.068Z,102471.16
2022-10-09T04:27:26.956Z,102468.56
2022-10-09T04:29:56.229Z,102466.81
2022-10-09T04:32:24.152Z,102470.38
2022-10-09T04:34:52.018Z,102465.88
2022-10-09T04:37:23.019Z,102473.03
2022-10-09T04:39:50.947Z,102462.38
2022-10-09T04:42:18.802Z,102467.72
2022-10-09T04:44:46.767Z,102458.81
2022-10-09T04:47:16.019Z,102473.16
2022-10-09T04:49:43.977Z,102469.53
2022-10-09T04:52:14.015Z,102460.69
2022-10-09T04:54:41.927Z,102461.59
2022-10-09T04:57:09.917Z,102471.41
2022-10-09T04:59:37.844Z,102462.50
2022-10-09T05:02:05.834Z,102459.84
2022-10-09T05:04:35.080Z,102458.91
2022-10-09T05:07:03.004Z,102459.84
2022-10-09T05:09:30.949Z,102454.50
2022-10-09T05:12:01.068Z,102455.44
2022-10-09T05:14:28.984Z,102461.66
2022-10-09T05:17:12.939Z,102460.81
2022-10-09T05:19:43.149Z,102454.56
2022-10-09T05:22:11.337Z,102451.91
2022-10-09T05:24:39.212Z,102447.44
2022-10-09T05:27:10.017Z,102447.44
2022-10-09T05:29:40.175Z,102450.19
2022-10-09T05:32:08.581Z,102455.56
2022-10-09T05:34:39.514Z,102452.00
2022-10-09T05:37:08.921Z,102450.19
2022-10-09T05:39:38.324Z,102444.91
2022-10-09T05:42:11.749Z,102448.44
2022-10-09T05:44:39.698Z,102450.25
2022-10-09T05:47:07.892Z,102441.38
2022-10-09T05:49:36.092Z,102445.81
2022-10-09T05:52:04.008Z,102445.81
2022-10-09T05:54:33.338Z,102446.72
2022-10-09T05:57:01.301Z,102447.63
2022-10-09T05:59:31.434Z,102449.44
2022-10-09T06:01:59.497Z,102449.44
2022-10-09T06:04:27.577Z,102443.22
2022-10-09T06:06:55.513Z,102456.59
2022-10-09T06:09:25.575Z,102447.69
2022-10-09T06:11:55.935Z,102452.19
2022-10-09T06:14:24.543Z,102447.69
2022-10-09T06:16:54.864Z,102446.75
2022-10-09T06:19:23.331Z,102450.25
2022-10-09T06:21:51.899Z,102455.63
2022-10-09T06:24:25.809Z,102457.28
2022-10-09T06:26:58.016Z,102461.78
2022-10-09T06:29:26.230Z,102457.34
2022-10-09T06:31:54.123Z,102458.22
2022-10-09T06:34:22.092Z,102453.81
2022-10-09T06:36:50.449Z,102465.38
2022-10-09T06:39:18.473Z,102467.19
2022-10-09T06:41:46.485Z,102463.59
2022-10-09T06:44:17.346Z,102462.72
2022-10-09T06:46:47.130Z,102466.25
2022-10-09T06:49:15.057Z,102463.59
2022-10-09T06:51:43.107Z,102474.22
2022-10-09T06:54:13.388Z,102473.34
2022-10-09T06:56:41.371Z,102469.78
2022-10-09T06:59:09.697Z,102467.97
2022-10-09T07:01:39.051Z,102468.84
2022-10-09T07:04:11.842Z,102467.97
2022-10-09T07:06:42.031Z,102469.69
2022-10-09T07:09:12.057Z,102471.41
2022-10-09T07:11:42.904Z,102468.72
2022-10-09T07:14:15.870Z,102469.59
2022-10-09T07:16:47.086Z,102475.91
2022-10-09T07:19:16.091Z,102475.00
2022-10-09T07:21:49.109Z,102462.53
2022-10-09T07:24:20.442Z,102473.22
2022-10-09T07:26:49.620Z,102472.28
2022-10-09T07:29:19.965Z,102474.88
2022-10-09T07:31:49.818Z,102470.41
2022-10-09T07:34:20.290Z,102476.63
2022-10-09T07:36:48.187Z,102468.59
2022-10-09T07:39:16.079Z,102469.50
2022-10-09T07:41:44.263Z,102472.16
2022-10-09T07:44:14.542Z,102469.41
2022-10-09T07:46:42.523Z,102467.63
2022-10-09T07:49:11.931Z,102471.16
2022-10-09T07:51:39.897Z,102470.28
2022-10-09T07:54:07.831Z,102474.66
2022-10-09T07:56:38.982Z,102471.13
2022-10-09T07:59:08.896Z,102460.41
2022-10-09T08:01:37.271Z,102464.84
2022-10-09T08:04:06.024Z,102465.69
2022-10-09T08:06:35.958Z,102463.97
2022-10-09T08:09:11.298Z,102465.69
2022-10-09T08:11:41.115Z,102470.13
2022-10-09T08:14:18.037Z,102458.53
2022-10-09T08:16:47.187Z,102462.09
2022-10-09T08:19:15.131Z,102458.50
2022-10-09T08:21:44.410Z,102462.09
2022-10-09T08:24:13.067Z,102456.72
2022-10-09T08:26:41.003Z,102457.59
2022-10-09T08:29:10.901Z,102457.59
2022-10-09T08:31:40.911Z,102457.56
2022-10-09T08:34:09.075Z,102455.81
2022-10-09T08:36:36.987Z,102449.53
2022-10-09T08:39:06.401Z,102443.28
2022-10-09T08:41:45.722Z,102445.91
2022-10-09T08:44:20.223Z,102440.53
2022-10-09T08:46:59.312Z,102434.31
2022-10-09T08:49:33.713Z,102441.41
2022-10-09T08:52:11.500Z,102440.53
2022-10-09T08:54:41.027Z,102434.25
2022-10-09T08:57:13.608Z,102427.09
2022-10-09T08:59:45.160Z,102427.09
2022-10-09T09:02:39.346Z,102427.09
2022-10-09T09:05:20.832Z,102424.28
2022-10-09T09:07:56.752Z,102424.25
2022-10-09T09:10:36.372Z,102415.28
2022-10-09T09:13:14.237Z,102408.19
2022-10-09T09:15:49.640Z,102411.66
2022-10-09T09:18:33.443Z,102405.44
2022-10-09T09:21:07.328Z,102408.97
2022-10-09T09:23:41.648Z,102406.31
2022-10-09T09:26:15.252Z,102406.31
2022-10-09T09:28:44.455Z,102402.69
2022-10-09T09:31:18.279Z,102400.00
2022-10-09T09:33:52.692Z,102399.09
2022-10-09T09:36:25.090Z,102399.97
2022-10-09T09:39:35.399Z,102398.16
2022-10-09T09:41:44.454Z,102387.44
2022-10-09T09:44:16.038Z,102389.19
2022-10-09T09:46:46.794Z,102391.84
2022-10-09T09:49:19.749Z,102391.84
2022-10-09T09:51:49.585Z,102380.19
2022-10-09T09:54:21.577Z,102374.84
2022-10-09T09:57:13.839Z,102371.25
2022-10-09T09:59:43.049Z,102364.09
2022-10-09T10:02:14.516Z,102362.28
2022-10-09T10:04:51.324Z,102359.59
2022-10-09T10:07:32.520Z,102366.75
2022-10-09T10:10:09.065Z,102357.84
2022-10-09T10:12:43.511Z,102354.25
2022-10-09T10:15:19.955Z,102355.97
2022-10-09T10:17:49.751Z,102349.69
2022-10-09T10:20:18.585Z,102347.00
2022-10-09T10:22:51.889Z,102344.31
2022-10-09T10:25:22.988Z,102345.16
2022-10-09T10:27:57.857Z,102339.72
2022-10-09T10:30:26.290Z,102332.56
2022-10-09T10:32:59.952Z,102341.47
2022-10-09T10:35:29.480Z,102326.28
2022-10-09T10:38:06.286Z,102315.47
2022-10-09T10:40:37.646Z,102325.25
2022-10-09T10:43:21.873Z,102312.75
2022-10-09T10:45:59.797Z,102313.63
2022-10-09T10:48:30.678Z,102305.59
2022-10-09T10:51:07.844Z,102302.91
2022-10-09T10:53:48.769Z,102303.69
2022-10-09T10:56:23.118Z,102297.47
2022-10-09T10:59:05.914Z,102293.06
2022-10-09T11:01:45.325Z,102287.63
2022-10-09T11:04:37.830Z,102286.75
2022-10-09T11:07:17.065Z,102279.59
2022-10-09T11:09:57.758Z,102276.00
2022-10-09T11:12:57.676Z,102264.38
2022-10-09T11:15:37.661Z,102270.63
2022-10-09T11:18:20.594Z,102262.59
2022-10-09T11:21:05.050Z,102260.78
2022-10-09T11:23:46.189Z,102257.25
2022-10-09T11:26:26.254Z,102255.44
2022-10-09T11:29:02.007Z,102248.31
2022-10-09T11:31:35.855Z,102243.84
2022-10-09T11:34:11.490Z,102243.84
2022-10-09T11:36:42.705Z,102226.88
2022-10-09T11:39:16.310Z,102234.00
2022-10-09T11:41:46.788Z,102227.75
2022-10-09T11:44:38.037Z,102231.25
2022-10-09T11:47:13.733Z,102221.41
2022-10-09T11:49:58.443Z,102215.19
2022-10-09T11:52:37.819Z,102209.84
2022-10-09T11:55:17.345Z,102205.41
2022-10-09T11:57:45.867Z,102196.47
2022-10-09T12:00:14.928Z,102192.97
2022-10-09T12:02:45.330Z,102194.72
2022-10-09T12:05:19.302Z,102185.81
2022-10-09T12:07:47.824Z,102178.63
2022-10-09T12:10:28.278Z,102179.53
2022-10-09T12:13:01.965Z,102175.94
2022-10-09T12:15:39.952Z,102169.69
2022-10-09T12:18:26.577Z,102167.00
2022-10-09T12:20:56.859Z,102161.59
2022-10-09T12:23:29.975Z,102148.25
2022-10-09T12:25:58.612Z,102147.34
2022-10-09T12:28:31.128Z,102142.88
2022-10-09T12:31:01.505Z,102136.66
2022-10-09T12:33:37.292Z,102130.41
2022-10-09T12:36:07.804Z,102133.94
2022-10-09T12:38:35.776Z,102125.94
2022-10-09T12:41:11.126Z,102123.25
2022-10-09T12:43:45.871Z,102126.81
2022-10-09T12:46:14.035Z,102110.75
2022-10-09T12:48:45.842Z,102108.09
2022-10-09T12:51:18.521Z,102090.28
2022-10-09T12:53:51.444Z,102092.03
2022-10-09T12:56:23.921Z,102091.16
2022-10-09T12:58:53.133Z,102077.84
2022-10-09T13:01:22.085Z,102077.84
2022-10-09T13:03:59.362Z,102078.72
2022-10-09T13:06:29.071Z,102066.41
2022-10-09T13:09:00.497Z,102059.34
2022-10-09T13:11:34.815Z,102060.31
2022-10-09T13:14:03.200Z,102059.34
2022-10-09T13:16:41.376Z,102050.56
2022-10-09T13:19:24.438Z,102047.13
2022-10-09T13:22:08.767Z,102050.78
2022-10-09T13:24:36.862Z,102037.47
2022-10-09T13:27:05.584Z,102030.34
2022-10-09T13:29:33.518Z,102033.94
2022-10-09T13:32:02.983Z,102038.47
2022-10-09T13:34:32.340Z,102030.53
2022-10-09T13:37:00.469Z,102017.19
2022-10-09T13:39:29.916Z,102016.22
2022-10-09T13:41:59.996Z,102007.41
2022-10-09T13:44:28.018Z,102003.88
2022-10-09T13:46:56.002Z,101999.47
2022-10-09T13:49:24.066Z,101998.50
2022-10-09T13:51:53.372Z,101994.97
2022-10-09T13:54:21.256Z,101992.28
2022-10-09T13:56:51.614Z,101992.28
2022-10-09T13:59:24.207Z,101983.38
2022-10-09T14:01:52.327Z,101978.91
2022-10-09T14:04:20.642Z,101971.78
2022-10-09T14:06:48.611Z,101968.22
2022-10-09T14:09:17.897Z,101975.34
2022-10-09T14:11:45.821Z,101969.09
2022-10-09T14:14:13.920Z,101965.56
2022-10-09T14:16:42.093Z,101968.22
2022-10-09T14:19:11.024Z,101957.50
2022-10-09T14:21:38.954Z,101958.47
2022-10-09T14:24:09.958Z,101962.00
2022-10-09T14:26:39.323Z,101945.94
2022-10-09T14:29:08.464Z,101947.75
2022-10-09T14:31:36.385Z,101957.50
2022-10-09T14:34:04.656Z,101938.78
2022-10-09T14:36:32.668Z,101936.03
2022-10-09T14:39:01.266Z,101925.34
2022-10-09T14:41:32.175Z,101925.16
2022-10-09T14:44:03.674Z,101925.13
2022-10-09T14:46:33.752Z,101926.84
2022-10-09T14:49:07.207Z,101924.97
2022-10-09T14:51:37.110Z,101908.03
2022-10-09T14:54:06.027Z,101916.00
2022-10-09T14:56:34.565Z,101910.56
2022-10-09T14:59:05.801Z,101902.47
2022-10-09T15:01:34.333Z,101905.94
2022-10-09T15:04:03.059Z,101899.63
2022-10-09T15:06:33.119Z,101893.34
2022-10-09T15:09:05.706Z,101892.16
2022-10-09T15:11:35.840Z,101873.38
2022-10-09T15:14:05.839Z,101874.13
2022-10-09T15:16:37.004Z,101878.53
2022-10-09T15:19:05.754Z,101877.59
2022-10-09T15:21:35.179Z,101865.91
2022-10-09T15:24:05.270Z,101863.22
2022-10-09T15:26:35.707Z,101856.88
2022-10-09T15:29:06.069Z,101857.66
2022-10-09T15:31:36.102Z,101849.56
2022-10-09T15:34:04.657Z,101846.78
2022-10-09T15:36:36.013Z,101852.97
2022-10-09T15:39:07.251Z,101839.56
2022-10-09T15:41:37.654Z,101843.09
2022-10-09T15:44:09.809Z,101839.41
2022-10-09T15:46:37.775Z,101830.47
2022-10-09T15:49:07.521Z,101829.56
2022-10-09T15:51:35.825Z,101827.75
2022-10-09T15:54:04.737Z,101825.06
2022-10-09T15:56:36.080Z,101824.97
2022-10-09T15:59:11.578Z,101820.47
2022-10-09T16:01:39.561Z,101815.13
2022-10-09T16:04:07.483Z,101809.75
2022-10-09T16:06:35.421Z,101800.78
2022-10-09T16:09:04.593Z,101794.47
2022-10-09T16:11:35.341Z,101798.88
2022-10-09T16:14:04.372Z,101803.28
2022-10-09T16:16:33.641Z,101790.84
2022-10-09T16:19:03.811Z,101789.91
2022-10-09T16:21:32.234Z,101790.78
2022-10-09T16:24:00.666Z,101797.00
2022-10-09T16:26:30.467Z,101788.97
2022-10-09T16:29:00.840Z,101780.94
2022-10-09T16:31:31.262Z,101783.53
2022-10-09T16:34:00.626Z,101782.56
2022-10-09T16:36:29.107Z,101782.50
2022-10-09T16:38:58.352Z,101785.97
2022-10-09T16:41:26.898Z,101776.97
2022-10-09T16:43:56.593Z,101777.78
2022-10-09T16:46:26.530Z,101779.50
2022-10-09T16:48:56.339Z,101774.16
2022-10-09T16:51:28.627Z,101774.16
2022-10-09T16:53:58.113Z,101764.38
2022-10-09T16:56:27.824Z,101764.28
2022-10-09T16:58:57.258Z,101764.28
2022-10-09T17:01:25.431Z,101766.03
2022-10-09T17:03:54.697Z,101762.41
2022-10-09T17:06:23.836Z,101764.22
2022-10-09T17:08:54.261Z,101760.59
2022-10-09T17:11:23.230Z,101749.00
2022-10-09T17:13:51.201Z,101753.34
2022-10-09T17:16:22.704Z,101761.41
2022-10-09T17:18:51.538Z,101761.41
2022-10-09T17:21:19.915Z,101763.19
2022-10-09T17:23:56.314Z,101769.34
2022-10-09T17:26:26.568Z,101763.88
2022-10-09T17:28:54.984Z,101760.28
2022-10-09T17:31:26.860Z,101761.06
2022-10-09T17:33:56.737Z,101762.78
2022-10-09T17:36:26.965Z,101758.22
2022-10-09T17:38:59.596Z,101758.22
2022-10-09T17:41:29.120Z,101751.91
2022-10-09T17:43:57.573Z,101760.75
2022-10-09T17:46:27.597Z,101759.81
2022-10-09T17:48:56.948Z,101754.44
2022-10-09T17:51:27.102Z,101765.16
2022-10-09T17:56:28.447Z,101752.56
2022-10-09T17:58:56.879Z,101754.28
2022-10-09T18:01:24.916Z,101755.06
2022-10-09T18:03:53.144Z,101747.88
2022-10-09T18:06:23.850Z,101745.13
2022-10-09T18:08:54.084Z,101746.84
2022-10-09T18:11:23.413Z,101741.50
2022-10-09T18:13:53.524Z,101742.34
2022-10-09T18:16:24.234Z,101741.50
2022-10-09T18:18:52.402Z,101740.63
2022-10-09T18:21:20.310Z,101744.19
2022-10-09T18:23:48.800Z,101738.81
2022-10-09T18:26:20.923Z,101741.50
2022-10-09T18:28:49.534Z,101726.38
2022-10-09T18:31:21.292Z,101730.00
2022-10-09T18:33:49.257Z,101724.53
2022-10-09T18:36:19.846Z,101728.19
2022-10-09T18:38:50.164Z,101723.69
2022-10-09T18:41:19.067Z,101723.69
2022-10-09T18:43:47.622Z,101725.50
2022-10-09T18:46:16.463Z,101721.06
2022-10-09T18:48:48.724Z,101709.47
2022-10-09T18:51:19.389Z,101718.47
2022-10-09T18:53:50.933Z,101715.03
2022-10-09T18:56:21.052Z,101708.69
2022-10-09T18:58:51.232Z,101713.25
2022-10-09T19:01:19.548Z,101706.09
2022-10-09T19:03:50.378Z,101707.03
2022-10-09T19:06:19.268Z,101706.19
2022-10-09T19:08:47.658Z,101703.50
2022-10-09T19:11:15.623Z,101706.19
2022-10-09T19:13:44.937Z,101701.69
2022-10-09T19:16:12.980Z,101700.81
2022-10-09T19:18:40.977Z,101685.75
2022-10-09T19:21:14.235Z,101694.66
2022-10-09T19:23:42.806Z,101693.78
2022-10-09T19:26:12.857Z,101691.19
2022-10-09T19:28:41.160Z,101689.38
2022-10-09T19:31:11.165Z,101685.94
2022-10-09T19:33:39.738Z,101689.47
2022-10-09T19:36:11.689Z,101684.97
2022-10-09T19:38:40.077Z,101675.22
2022-10-09T19:41:10.107Z,101682.34
2022-10-09T19:43:39.079Z,101675.22
2022-10-09T19:46:09.763Z,101677.09
2022-10-09T19:48:38.463Z,101675.28
2022-10-09T19:51:08.080Z,101677.09
2022-10-09T19:53:37.462Z,101672.69
2022-10-09T19:56:10.871Z,101669.13
2022-10-09T19:58:40.775Z,101670.06
2022-10-09T20:01:09.127Z,101670.06
2022-10-09T20:03:37.167Z,101673.69
2022-10-09T20:06:06.361Z,101676.47
2022-10-09T20:08:34.248Z,101670.25
2022-10-09T20:11:04.921Z,101660.44
2022-10-09T20:13:33.201Z,101662.22
2022-10-09T20:16:02.512Z,101659.53
2022-10-09T20:18:30.756Z,101653.38
2022-10-09T20:20:58.689Z,101655.09
2022-10-09T20:23:29.601Z,101655.09
2022-10-09T20:26:01.620Z,101656.03
2022-10-09T20:28:32.090Z,101648.97
2022-10-09T20:31:00.802Z,101650.69
2022-10-09T20:33:28.902Z,101652.50
2022-10-09T20:35:57.199Z,101648.97
2022-10-09T20:38:26.034Z,101646.28
2022-10-09T20:40:54.326Z,101639.19
2022-10-09T20:43:24.479Z,101645.41
2022-10-09T20:45:53.770Z,101640.97
2022-10-09T20:48:21.696Z,101650.78
2022-10-09T20:50:49.587Z,101647.22
2022-10-09T20:53:17.784Z,101635.63
2022-10-09T20:55:45.780Z,101632.06
2022-10-09T20:58:13.654Z,101636.50
2022-10-09T21:00:43.837Z,101627.56
2022-10-09T21:03:13.074Z,101625.84
2022-10-09T21:05:42.403Z,101628.53
2022-10-09T21:08:10.846Z,101629.41
2022-10-09T21:10:44.634Z,101626.72
2022-10-09T21:13:12.969Z,101624.13
2022-10-09T21:15:46.711Z,101619.63
2022-10-09T21:18:19.926Z,101612.53
2022-10-09T21:20:49.313Z,101614.25
2022-10-09T21:23:19.569Z,101606.22
2022-10-09T21:25:49.179Z,101598.19
2022-10-09T21:28:17.639Z,101604.50
2022-10-09T21:30:45.555Z,101601.81
2022-10-09T21:33:13.753Z,101592.03
2022-10-09T21:35:44.956Z,101599.28
2022-10-09T21:38:14.703Z,101592.22
2022-10-09T21:40:43.036Z,101592.13
2022-10-09T21:43:11.528Z,101576.13
2022-10-09T21:45:40.373Z,101586.84
2022-10-09T21:48:08.583Z,101586.00
2022-10-09T21:50:39.395Z,101596.72
2022-10-09T21:53:08.971Z,101584.22
2022-10-09T21:55:38.325Z,101589.69
2022-10-09T21:58:07.090Z,101590.56
2022-10-09T22:00:35.562Z,101578.16
2022-10-09T22:03:03.482Z,101577.25
2022-10-09T22:05:31.417Z,101576.38
2022-10-09T22:07:59.398Z,101571.88
2022-10-09T22:10:28.954Z,101570.13
2022-10-09T22:12:56.924Z,101572.81
2022-10-09T22:15:24.884Z,101564.00
2022-10-09T22:17:52.770Z,101561.31
2022-10-09T22:20:20.709Z,101559.59
2022-10-09T22:22:48.743Z,101552.47
2022-10-09T22:25:16.967Z,101552.47
2022-10-09T22:27:46.190Z,101547.13
2022-10-09T22:30:14.546Z,101544.53
2022-10-09T22:32:42.511Z,101551.72
2022-10-09T22:35:10.526Z,101549.03
2022-10-09T22:37:38.414Z,101546.34
2022-10-09T22:40:10.207Z,101550.00
2022-10-09T22:42:38.264Z,101550.91
2022-10-09T22:45:09.223Z,101545.56
2022-10-09T22:47:37.212Z,101546.59
2022-10-09T22:50:05.479Z,101541.25
2022-10-09T22:52:33.423Z,101540.38
2022-10-09T22:55:01.366Z,101530.53
2022-10-09T22:57:29.347Z,101539.50
2022-10-09T22:59:57.492Z,101530.59
2022-10-09T23:02:26.778Z,101537.78
2022-10-09T23:04:54.693Z,101524.47
2022-10-09T23:07:22.603Z,101528.97
2022-10-09T23:09:50.455Z,101522.72
2022-10-09T23:12:18.388Z,101528.06
2022-10-09T23:14:46.485Z,101524.53
2022-10-09T23:17:14.459Z,101523.66
2022-10-09T23:19:43.691Z,101521.09
2022-10-09T23:22:13.892Z,101525.59
2022-10-09T23:24:42.063Z,101517.53
2022-10-09T23:27:09.933Z,101510.44
2022-10-09T23:29:37.916Z,101511.31
2022-10-09T23:32:05.828Z,101512.25
2022-10-09T23:34:34.092Z,101505.16
2022-10-09T23:37:03.398Z,101510.53
2022-10-09T23:39:31.397Z,101509.66
2022-10-09T23:41:59.293Z,101505.22
2022-10-09T23:44:27.266Z,101503.47
2022-10-09T23:46:55.476Z,101499.00
2022-10-09T23:49:23.671Z,101500.78
2022-10-09T23:51:51.581Z,101497.25
2022-10-09T23:54:20.815Z,101500.78
2022-10-09T23:56:48.861Z,101496.41
2022-10-09T23:59:16.798Z,101486.53
